Time;durP1;ratioP1;P1;durP2;ratioP2;P2;SDS_P1;SDS_P2;PMS_P1;PMS_P2;Temp;Humidity;BMP_temperature;BMP_pressure;BME280_temperature;BME280_humidity;BME280_pressure;Samples;Min_cycle;Max_cycle;Signal;HPM_P1;HPM_P2
2022/05/29 00:05:23;;;;;;;10.53;10.23;;;8.40;99.90;;;;;;5098533;28;20233;-85
2022/05/29 00:07:51;;;;;;;10.40;10.10;;;8.40;99.90;;;;;;5099835;28;20225;-84
2022/05/29 00:10:23;;;;;;;10.40;10.10;;;8.40;99.90;;;;;;5099940;28;20260;-84
2022/05/29 00:12:59;;;;;;;10.63;10.33;;;8.40;99.90;;;;;;5099755;28;20245;-84
2022/05/29 00:15:38;;;;;;;10.60;10.30;;;8.40;99.90;;;;;;5099888;28;20237;-84
2022/05/29 00:18:15;;;;;;;10.47;10.17;;;8.40;99.90;;;;;;5099364;28;20239;-84
2022/05/29 00:20:56;;;;;;;10.50;10.20;;;8.40;99.90;;;;;;5099687;28;20236;-84
2022/05/29 00:23:26;;;;;;;10.80;10.50;;;8.40;99.90;;;;;;5099528;28;20225;-84
2022/05/29 00:28:51;;;;;;;10.43;10.13;;;8.40;99.90;;;;;;5103843;28;20238;-84
2022/05/29 00:31:24;;;;;;;10.60;10.30;;;8.40;99.90;;;;;;5106295;28;20288;-85
2022/05/29 00:33:58;;;;;;;10.30;10.00;;;8.30;99.90;;;;;;5105366;28;20279;-85
2022/05/29 00:36:36;;;;;;;10.50;10.20;;;8.40;99.90;;;;;;5108058;28;20591;-85
2022/05/29 00:39:04;;;;;;;10.50;10.20;;;8.40;99.90;;;;;;5104288;28;20807;-84
2022/05/29 00:41:37;;;;;;;10.50;10.20;;;8.40;99.90;;;;;;5101143;28;20287;-83
2022/05/29 00:44:23;;;;;;;10.50;10.20;;;8.40;99.90;;;;;;5112183;27;20221;-85
2022/05/29 00:47:02;;;;;;;10.50;10.20;;;8.40;99.90;;;;;;5121205;28;20264;-84
2022/05/29 00:49:33;;;;;;;10.40;10.10;;;8.40;99.90;;;;;;5121769;28;20248;-85
2022/05/29 00:52:07;;;;;;;10.47;10.17;;;8.30;99.90;;;;;;5121716;27;20213;-84
2022/05/29 00:54:42;;;;;;;10.50;10.20;;;8.20;99.90;;;;;;5120011;28;20212;-85
2022/05/29 00:57:14;;;;;;;10.60;10.30;;;8.20;99.90;;;;;;5120707;27;20287;-84
2022/05/29 00:59:45;;;;;;;10.83;10.53;;;8.20;99.90;;;;;;5121691;27;20219;-84
2022/05/29 01:02:23;;;;;;;10.40;10.10;;;8.10;99.90;;;;;;5121695;27;20229;-84
2022/05/29 01:05:02;;;;;;;10.50;10.20;;;8.10;99.90;;;;;;5122069;27;20216;-84
2022/05/29 01:07:40;;;;;;;10.30;10.00;;;8.00;99.90;;;;;;5121157;27;20218;-84
2022/05/29 01:10:10;;;;;;;10.43;10.13;;;7.90;99.90;;;;;;5122236;27;20291;-84
2022/05/29 01:12:47;;;;;;;10.40;10.10;;;7.90;99.90;;;;;;5121740;27;20244;-84
2022/05/29 01:15:33;;;;;;;10.50;10.20;;;7.80;99.90;;;;;;5121939;27;20202;-84
2022/05/29 01:18:23;;;;;;;10.70;10.40;;;7.80;99.90;;;;;;5122186;27;20209;-84
2022/05/29 01:21:17;;;;;;;10.47;10.17;;;7.80;99.90;;;;;;5122522;27;20244;-84
2022/05/29 01:24:30;;;;;;;10.50;10.20;;;7.80;99.90;;;;;;5121584;27;20247;-84
2022/05/29 01:30:11;;;;;;;10.43;10.13;;;7.70;99.90;;;;;;5121434;27;20229;-84
2022/05/29 01:32:50;;;;;;;10.60;10.30;;;7.70;99.90;;;;;;5122077;27;20248;-84
2022/05/29 01:38:15;;;;;;;10.50;10.20;;;7.70;99.90;;;;;;5121900;27;20266;-84
2022/05/29 01:40:52;;;;;;;10.53;10.23;;;7.70;99.90;;;;;;5121995;27;20205;-85
2022/05/29 01:43:31;;;;;;;10.87;10.57;;;7.60;99.90;;;;;;5121554;27;20221;-84
2022/05/29 01:46:13;;;;;;;10.80;10.50;;;7.60;99.90;;;;;;5121955;27;20281;-85
2022/05/29 01:48:56;;;;;;;10.70;10.40;;;7.60;99.90;;;;;;5116483;27;20223;-85
2022/05/29 01:54:24;;;;;;;10.70;10.40;;;7.50;99.90;;;;;;5109835;28;20217;-85
2022/05/29 01:57:02;;;;;;;10.40;10.10;;;7.50;99.90;;;;;;5120028;28;20277;-85
2022/05/29 01:59:48;;;;;;;10.90;10.60;;;7.50;99.90;;;;;;5120026;27;20267;-83
2022/05/29 02:02:28;;;;;;;10.80;10.50;;;7.40;99.90;;;;;;5118624;28;20247;-84
2022/05/29 02:05:06;;;;;;;10.53;10.23;;;7.30;99.90;;;;;;5109370;28;20229;-85
2022/05/29 02:07:49;;;;;;;10.60;10.30;;;7.30;99.90;;;;;;5104061;28;20287;-84
2022/05/29 02:10:32;;;;;;;10.67;10.37;;;7.20;99.90;;;;;;5103829;28;20217;-84
2022/05/29 02:13:08;;;;;;;10.50;10.20;;;7.20;99.90;;;;;;5103487;28;20286;-85
2022/05/29 02:15:48;;;;;;;10.50;10.20;;;7.20;99.90;;;;;;5103670;28;20264;-85
2022/05/29 02:18:35;;;;;;;10.60;10.30;;;7.00;99.90;;;;;;5102411;28;20222;-84
2022/05/29 02:21:13;;;;;;;10.80;10.50;;;6.80;99.90;;;;;;5101493;28;20235;-84
2022/05/29 02:23:53;;;;;;;10.93;10.63;;;6.70;99.90;;;;;;5100841;28;20234;-84
2022/05/29 02:26:30;;;;;;;10.73;10.43;;;6.60;99.90;;;;;;5101222;28;20237;-85
2022/05/29 02:29:08;;;;;;;10.67;10.37;;;6.60;99.90;;;;;;5103049;28;20240;-84
2022/05/29 02:34:58;;;;;;;10.80;10.50;;;6.60;99.90;;;;;;5100526;28;20228;-85
2022/05/29 02:37:36;;;;;;;10.80;10.50;;;6.70;99.90;;;;;;5102164;28;20275;-84
2022/05/29 02:40:25;;;;;;;10.60;10.30;;;6.70;99.90;;;;;;5102742;28;20261;-84
2022/05/29 02:43:05;;;;;;;10.80;10.50;;;6.80;99.90;;;;;;5101570;28;20213;-85
2022/05/29 02:45:51;;;;;;;10.80;10.50;;;6.70;99.90;;;;;;5102816;28;20315;-84
2022/05/29 02:48:29;;;;;;;10.60;10.30;;;6.70;99.90;;;;;;5102499;28;20247;-85
2022/05/29 02:51:08;;;;;;;10.80;10.50;;;6.70;99.90;;;;;;5109950;27;20221;-84
2022/05/29 02:53:36;;;;;;;10.70;10.40;;;6.70;99.90;;;;;;5110197;27;20244;-84
2022/05/29 02:56:07;;;;;;;10.70;10.40;;;6.70;99.90;;;;;;5102836;28;20237;-85
2022/05/29 02:58:38;;;;;;;10.40;10.10;;;6.70;99.90;;;;;;5106411;28;20256;-85
2022/05/29 03:01:32;;;;;;;10.70;10.40;;;6.70;99.90;;;;;;5106787;28;20228;-85
2022/05/29 03:04:26;;;;;;;10.80;10.50;;;6.70;99.90;;;;;;5102598;28;20230;-84
2022/05/29 03:07:07;;;;;;;10.83;10.53;;;6.70;99.90;;;;;;5099097;28;20291;-84
2022/05/29 03:12:49;;;;;;;10.90;10.60;;;6.60;99.90;;;;;;5099201;28;20650;-85
2022/05/29 03:15:46;;;;;;;10.77;10.47;;;6.60;99.90;;;;;;5100043;28;20226;-85
2022/05/29 03:18:50;;;;;;;10.87;10.57;;;6.60;99.90;;;;;;5099900;28;20282;-85
2022/05/29 03:21:54;;;;;;;10.67;10.37;;;6.60;99.90;;;;;;5106884;28;20257;-85
2022/05/29 03:27:27;;;;;;;10.83;10.53;;;6.40;99.90;;;;;;5102294;28;20222;-84
2022/05/29 03:30:06;;;;;;;10.90;10.60;;;6.40;99.90;;;;;;5102332;28;20229;-84
2022/05/29 03:32:45;;;;;;;10.93;10.63;;;6.40;99.90;;;;;;5101467;28;20260;-84
2022/05/29 03:35:31;;;;;;;10.90;10.60;;;6.40;99.90;;;;;;5100568;28;20229;-84
2022/05/29 03:38:10;;;;;;;10.90;10.60;;;6.40;99.90;;;;;;5100067;28;20221;-85
2022/05/29 03:40:50;;;;;;;10.60;10.30;;;6.40;99.90;;;;;;5099255;28;20298;-85
2022/05/29 03:43:26;;;;;;;10.60;10.30;;;6.40;99.90;;;;;;5099130;28;20233;-85
2022/05/29 03:45:57;;;;;;;10.83;10.53;;;6.40;99.90;;;;;;5099135;28;20244;-84
2022/05/29 03:48:25;;;;;;;10.80;10.50;;;6.40;99.90;;;;;;5099179;28;20226;-85
2022/05/29 03:50:55;;;;;;;10.87;10.57;;;6.50;99.90;;;;;;5098780;28;20244;-84
2022/05/29 03:53:25;;;;;;;10.60;10.30;;;6.40;99.90;;;;;;5098884;28;20260;-85
2022/05/29 03:55:55;;;;;;;10.63;10.33;;;6.40;99.90;;;;;;5098766;28;20226;-84
2022/05/29 03:58:24;;;;;;;10.50;10.20;;;6.40;99.90;;;;;;5098703;28;20221;-85
2022/05/29 04:01:01;;;;;;;10.60;10.30;;;6.50;99.90;;;;;;5099342;28;20275;-85
2022/05/29 04:03:32;;;;;;;10.63;10.33;;;6.50;99.90;;;;;;5098652;28;20237;-85
2022/05/29 04:06:08;;;;;;;10.70;10.40;;;6.50;99.90;;;;;;5098544;28;20243;-84
2022/05/29 04:14:11;;;;;;;10.40;10.10;;;6.60;99.90;;;;;;5150384;22;20233;-84
2022/05/29 04:16:42;;;;;;;10.50;10.20;;;6.70;99.90;;;;;;5128606;27;20248;-85
2022/05/29 04:19:11;;;;;;;10.50;10.20;;;6.80;99.90;;;;;;5132036;28;20316;-85
2022/05/29 04:21:40;;;;;;;10.33;10.03;;;6.80;99.90;;;;;;5131099;28;20220;-85
2022/05/29 04:24:10;;;;;;;10.27;9.97;;;6.90;99.90;;;;;;5129307;27;20232;-85
2022/05/29 04:26:49;;;;;;;10.13;9.83;;;7.10;99.90;;;;;;5127838;28;20227;-85
2022/05/29 04:29:18;;;;;;;10.20;9.90;;;7.20;99.90;;;;;;5127802;28;20228;-85
2022/05/29 04:34:28;;;;;;;10.20;9.90;;;7.50;99.90;;;;;;5128570;27;20247;-85
2022/05/29 04:36:55;;;;;;;10.33;10.03;;;7.60;99.90;;;;;;5128456;27;20228;-85
2022/05/29 04:39:25;;;;;;;10.37;10.07;;;7.70;99.90;;;;;;5127935;28;20216;-86
2022/05/29 04:41:56;;;;;;;10.33;10.03;;;7.90;99.90;;;;;;5130548;28;20229;-85
2022/05/29 04:44:24;;;;;;;10.53;10.23;;;8.00;99.90;;;;;;5143117;27;20225;-85
2022/05/29 04:46:53;;;;;;;10.40;10.10;;;8.20;99.90;;;;;;5143443;27;20216;-84
2022/05/29 04:49:22;;;;;;;10.60;10.30;;;8.30;99.90;;;;;;5143271;27;20276;-85
2022/05/29 04:51:52;;;;;;;10.50;10.20;;;8.40;99.90;;;;;;5139370;27;20225;-85
2022/05/29 04:54:21;;;;;;;10.50;10.20;;;8.50;99.90;;;;;;5125012;27;20236;-86
2022/05/29 04:56:50;;;;;;;10.70;10.40;;;8.60;99.90;;;;;;5126493;28;20225;-86
2022/05/29 04:59:22;;;;;;;10.70;10.40;;;8.60;99.90;;;;;;5126766;28;20221;-86
2022/05/29 05:01:50;;;;;;;10.70;10.40;;;8.70;99.90;;;;;;5127909;28;20233;-85
2022/05/29 05:04:20;;;;;;;10.70;10.40;;;8.70;99.90;;;;;;5126072;27;20236;-86
2022/05/29 05:06:49;;;;;;;10.80;10.50;;;8.60;99.90;;;;;;5126578;28;20254;-86
2022/05/29 05:09:18;;;;;;;10.53;10.23;;;8.50;99.90;;;;;;5127450;28;20233;-86
2022/05/29 05:11:47;;;;;;;10.60;10.30;;;8.40;99.90;;;;;;5126964;28;20232;-86
2022/05/29 05:14:16;;;;;;;10.70;10.40;;;8.50;99.90;;;;;;5126208;27;20236;-86
2022/05/29 05:16:56;;;;;;;10.53;10.23;;;8.60;99.90;;;;;;5126530;28;20220;-86
2022/05/29 05:19:25;;;;;;;10.57;10.27;;;8.70;99.90;;;;;;5127599;28;20235;-86
2022/05/29 05:21:54;;;;;;;10.80;10.50;;;8.80;99.90;;;;;;5127978;28;20232;-86
2022/05/29 05:24:23;;;;;;;10.80;10.50;;;8.90;99.90;;;;;;5128264;28;20228;-85
2022/05/29 05:26:53;;;;;;;10.60;10.30;;;9.00;99.90;;;;;;5129462;27;20229;-86
2022/05/29 05:29:22;;;;;;;10.77;10.47;;;9.10;99.90;;;;;;5127512;27;20382;-86
2022/05/29 05:32:00;;;;;;;10.47;10.17;;;9.10;99.90;;;;;;5129054;28;20236;-86
2022/05/29 05:34:30;;;;;;;10.50;10.20;;;9.20;99.90;;;;;;5127991;28;20232;-86
2022/05/29 05:36:59;;;;;;;10.40;10.10;;;9.10;99.90;;;;;;5129162;28;20232;-86
2022/05/29 05:39:29;;;;;;;10.60;10.30;;;9.20;99.90;;;;;;5130017;28;20225;-86
2022/05/29 05:41:59;;;;;;;10.30;10.00;;;9.20;99.90;;;;;;5129376;28;20221;-86
2022/05/29 05:44:28;;;;;;;10.47;10.17;;;9.40;99.90;;;;;;5127603;28;20235;-86
2022/05/29 05:47:08;;;;;;;10.60;10.30;;;9.40;99.90;;;;;;5127832;28;20219;-86
2022/05/29 05:49:37;;;;;;;10.50;10.20;;;9.60;99.90;;;;;;5127450;28;20205;-86
2022/05/29 05:52:07;;;;;;;10.60;10.30;;;9.70;99.90;;;;;;5127605;28;20289;-87
2022/05/29 05:54:35;;;;;;;10.40;10.10;;;9.80;99.90;;;;;;5130300;27;20259;-86
2022/05/29 05:57:06;;;;;;;10.57;10.27;;;9.80;99.90;;;;;;5131616;28;20236;-87
2022/05/29 05:59:36;;;;;;;10.50;10.20;;;9.90;99.90;;;;;;5129732;27;20233;-87
2022/05/29 06:02:12;;;;;;;10.53;10.23;;;10.00;99.90;;;;;;5128505;27;20229;-86
2022/05/29 06:04:44;;;;;;;10.40;10.10;;;10.20;99.90;;;;;;5127098;28;20235;-86
2022/05/29 06:07:12;;;;;;;10.77;10.47;;;10.30;99.90;;;;;;5127212;27;20236;-87
2022/05/29 06:09:40;;;;;;;10.53;10.23;;;10.40;99.90;;;;;;5127035;28;20260;-87
2022/05/29 06:12:09;;;;;;;10.63;10.33;;;10.60;99.90;;;;;;5127554;27;20233;-86
2022/05/29 06:14:40;;;;;;;10.60;10.30;;;10.80;99.90;;;;;;5129733;27;20261;-86
2022/05/29 06:17:20;;;;;;;10.60;10.30;;;10.90;99.90;;;;;;5139255;28;20232;-86
2022/05/29 06:19:48;;;;;;;10.30;10.00;;;10.90;99.90;;;;;;5131158;28;20284;-86
2022/05/29 06:22:17;;;;;;;10.57;10.27;;;10.90;99.90;;;;;;5128206;27;20224;-86
2022/05/29 06:24:47;;;;;;;10.50;10.20;;;11.00;99.90;;;;;;5127447;28;20726;-87
2022/05/29 06:27:16;;;;;;;10.20;9.90;;;11.10;99.90;;;;;;5128376;28;20228;-86
2022/05/29 06:29:45;;;;;;;10.57;10.27;;;11.20;99.90;;;;;;5127016;28;20221;-86
2022/05/29 06:32:25;;;;;;;10.37;10.07;;;11.10;99.90;;;;;;5126638;27;20228;-87
2022/05/29 06:34:56;;;;;;;10.50;10.20;;;10.90;99.90;;;;;;5126905;27;20224;-86
2022/05/29 06:37:23;;;;;;;10.63;10.33;;;10.90;99.90;;;;;;5126755;28;20315;-87
2022/05/29 06:39:52;;;;;;;10.47;10.17;;;11.00;99.90;;;;;;5125330;27;20322;-87
2022/05/29 06:42:21;;;;;;;10.40;10.10;;;11.00;99.90;;;;;;5126055;27;20221;-87
2022/05/29 06:44:51;;;;;;;10.50;10.20;;;10.80;99.90;;;;;;5126602;28;20225;-86
2022/05/29 06:47:23;;;;;;;10.57;10.27;;;10.90;99.90;;;;;;5126346;28;20236;-87
2022/05/29 06:49:51;;;;;;;10.30;10.00;;;10.90;99.90;;;;;;5125599;28;20228;-87
2022/05/29 06:52:20;;;;;;;10.10;9.80;;;10.90;99.90;;;;;;5125377;28;20237;-86
2022/05/29 06:54:49;;;;;;;10.60;10.30;;;10.90;99.90;;;;;;5125179;28;20229;-87
2022/05/29 06:57:36;;;;;;;10.37;10.07;;;10.80;99.90;;;;;;5125152;27;20232;-87
2022/05/29 07:08:29;;;;;;;10.17;9.87;;;10.70;99.90;;;;;;5126924;28;20244;-86
2022/05/29 07:11:06;;;;;;;10.37;10.07;;;10.80;99.90;;;;;;5126406;28;20223;-87
2022/05/29 07:13:34;;;;;;;10.70;10.40;;;10.80;99.90;;;;;;5125266;28;20259;-87
2022/05/29 07:16:04;;;;;;;10.63;10.33;;;11.00;99.90;;;;;;5125433;28;20257;-87
2022/05/29 07:18:36;;;;;;;10.40;10.10;;;11.10;99.90;;;;;;5125343;28;20262;-86
2022/05/29 07:21:12;;;;;;;10.40;10.10;;;11.20;99.90;;;;;;5125241;28;20262;-87
2022/05/29 07:23:43;;;;;;;10.67;10.37;;;11.20;99.90;;;;;;5139286;27;20236;-86
2022/05/29 07:26:10;;;;;;;10.43;10.13;;;11.40;99.90;;;;;;5140928;27;20231;-86
2022/05/29 07:28:40;;;;;;;10.37;10.07;;;11.50;99.90;;;;;;5141002;27;20227;-86
2022/05/29 07:31:09;;;;;;;10.43;10.13;;;11.70;99.90;;;;;;5136724;27;20212;-87
2022/05/29 07:33:48;;;;;;;10.13;9.83;;;11.90;99.90;;;;;;5122225;28;20233;-87
2022/05/29 07:36:19;;;;;;;10.60;10.30;;;12.10;99.90;;;;;;5122809;27;20221;-87
2022/05/29 07:38:47;;;;;;;10.20;9.90;;;12.30;99.90;;;;;;5123112;28;20252;-87
2022/05/29 07:44:03;;;;;;;10.37;10.07;;;12.50;99.90;;;;;;5124457;27;20225;-87
2022/05/29 07:46:34;;;;;;;10.70;10.40;;;12.80;99.90;;;;;;5124504;28;20225;-86
2022/05/29 07:49:06;;;;;;;10.87;10.57;;;13.00;99.90;;;;;;5123354;27;20251;-87
2022/05/29 07:51:40;;;;;;;10.60;10.30;;;13.20;99.90;;;;;;5123714;27;20216;-87
2022/05/29 07:54:09;;;;;;;10.63;10.33;;;13.30;99.90;;;;;;5125952;27;20241;-87
2022/05/29 07:56:38;;;;;;;10.33;10.03;;;13.60;99.90;;;;;;5126144;28;20228;-87
2022/05/29 07:59:08;;;;;;;10.57;10.27;;;13.70;99.90;;;;;;5127307;28;20224;-87
2022/05/29 08:01:37;;;;;;;10.70;10.40;;;13.80;99.90;;;;;;5135335;27;20236;-86
2022/05/29 08:04:15;;;;;;;10.70;10.40;;;14.00;99.90;;;;;;5138027;27;20233;-87
2022/05/29 08:09:33;;;;;;;10.50;10.20;;;14.20;99.90;;;;;;5137731;28;20292;-87
2022/05/29 08:12:14;;;;;;;10.50;10.20;;;14.40;99.90;;;;;;5130534;28;20232;-86
2022/05/29 08:14:42;;;;;;;10.80;10.50;;;14.60;99.90;;;;;;5128132;28;20319;-87
2022/05/29 08:17:12;;;;;;;10.55;10.25;;;14.80;99.90;;;;;;5127566;27;20235;-87
2022/05/29 08:19:51;;;;;;;10.93;10.63;;;14.70;99.90;;;;;;5127867;28;20233;-86
2022/05/29 08:22:19;;;;;;;10.73;10.43;;;14.70;99.90;;;;;;5127246;27;20239;-87
2022/05/29 08:30:46;;;;;;;10.40;10.10;;;15.10;99.90;;;;;;5128391;28;20712;-86
2022/05/29 08:33:20;;;;;;;10.20;9.90;;;15.30;99.90;;;;;;5129436;27;20217;-86
2022/05/29 08:35:58;;;;;;;10.57;10.27;;;15.50;99.90;;;;;;5139057;28;20225;-86
2022/05/29 08:38:37;;;;;;;10.30;10.00;;;15.80;99.90;;;;;;5132254;27;20236;-86
2022/05/29 08:41:15;;;;;;;10.30;10.00;;;16.20;99.90;;;;;;5129260;27;20232;-86
2022/05/29 08:44:08;;;;;;;10.00;9.70;;;16.20;99.90;;;;;;5127485;27;20242;-86
2022/05/29 08:47:00;;;;;;;10.15;9.85;;;16.40;99.90;;;;;;5127922;28;20326;-86
2022/05/29 08:49:43;;;;;;;10.48;10.18;;;16.70;99.90;;;;;;5126541;28;20225;-86
2022/05/29 08:52:50;;;;;;;10.60;10.30;;;16.90;99.90;;;;;;5125480;27;20243;-86
2022/05/29 08:55:28;;;;;;;10.63;10.32;;;17.10;99.90;;;;;;5127195;27;20217;-86
2022/05/29 08:58:44;;;;;;;10.23;9.93;;;17.20;99.90;;;;;;5126730;27;20236;-86
2022/05/29 09:01:26;;;;;;;10.40;10.10;;;17.30;99.90;;;;;;5126217;27;20252;-87
2022/05/29 09:04:05;;;;;;;10.50;10.20;;;17.70;99.90;;;;;;5127493;27;20221;-86
2022/05/29 09:06:38;;;;;;;10.20;9.90;;;17.50;99.90;;;;;;5125609;28;20217;-86
2022/05/29 09:09:21;;;;;;;10.20;9.90;;;17.60;99.90;;;;;;5124895;28;20283;-87
2022/05/29 09:12:00;;;;;;;10.63;10.32;;;17.60;99.90;;;;;;5126034;27;20236;-87
2022/05/29 09:14:55;;;;;;;10.55;10.25;;;17.20;99.90;;;;;;5124404;27;20232;-87
2022/05/29 09:17:42;;;;;;;10.60;10.30;;;16.70;99.90;;;;;;5124583;27;20229;-87
2022/05/29 09:20:29;;;;;;;10.50;10.20;;;15.90;99.90;;;;;;5125056;28;20233;-87
2022/05/29 09:23:06;;;;;;;10.57;10.27;;;15.70;99.90;;;;;;5123451;27;20229;-87
2022/05/29 09:25:45;;;;;;;10.15;9.85;;;15.70;99.90;;;;;;5125590;28;20251;-87
2022/05/29 09:28:24;;;;;;;10.43;10.13;;;15.30;99.90;;;;;;5139756;27;20250;-87
2022/05/29 09:30:55;;;;;;;10.35;10.05;;;15.00;99.90;;;;;;5125432;28;20279;-87
2022/05/29 09:33:31;;;;;;;10.05;9.75;;;14.90;99.90;;;;;;5123982;27;20233;-87
2022/05/29 09:36:09;;;;;;;10.25;9.95;;;14.60;99.90;;;;;;5127056;27;20242;-87
2022/05/29 09:38:48;;;;;;;10.15;9.85;;;14.50;99.90;;;;;;5126124;28;20271;-87
2022/05/29 09:50:13;;;;;;;10.52;10.23;;;14.40;99.90;;;;;;5123111;28;20213;-87
2022/05/29 09:55:36;;;;;;;9.98;9.68;;;14.80;99.90;;;;;;5124343;27;20224;-88
2022/05/29 09:58:28;;;;;;;10.15;9.85;;;15.20;99.90;;;;;;5123338;28;20256;-87
2022/05/29 10:01:14;;;;;;;10.10;9.80;;;15.70;99.90;;;;;;5133482;28;20224;-87
2022/05/29 10:04:01;;;;;;;10.30;10.00;;;15.80;99.90;;;;;;5140628;27;20220;-88
2022/05/29 10:06:42;;;;;;;10.07;9.77;;;16.10;99.90;;;;;;5140351;27;20217;-87
2022/05/29 10:09:16;;;;;;;10.35;10.05;;;16.20;99.90;;;;;;5140124;27;20262;-87
2022/05/29 10:11:46;;;;;;;10.30;10.00;;;15.90;99.90;;;;;;5138299;28;20247;-87
2022/05/29 10:14:43;;;;;;;10.15;9.85;;;15.80;99.90;;;;;;5089156;22;1463394;-84
2022/05/29 10:17:21;;;;;;;10.20;9.90;;;15.90;99.90;;;;;;5108397;28;20229;-83
2022/05/29 10:20:52;;;;;;;10.10;9.80;;;16.10;99.90;;;;;;5107486;28;20221;-83
2022/05/29 10:23:48;;;;;;;10.10;9.80;;;16.10;99.90;;;;;;5106626;28;20236;-83
2022/05/29 10:26:35;;;;;;;10.43;10.13;;;16.30;99.90;;;;;;5103613;28;20332;-84
2022/05/29 10:29:31;;;;;;;10.20;9.90;;;16.70;99.90;;;;;;5103008;28;20716;-84
2022/05/29 10:35:31;;;;;;;10.73;10.43;;;16.60;99.90;;;;;;5086774;28;20224;-83
2022/05/29 10:41:05;;;;;;;10.70;10.40;;;16.80;99.90;;;;;;5102022;28;20236;-83
2022/05/29 10:43:44;;;;;;;10.57;10.27;;;17.20;99.90;;;;;;5102016;28;20317;-84
2022/05/29 10:46:22;;;;;;;10.77;10.48;;;17.90;99.90;;;;;;5102123;28;20218;-83
2022/05/29 10:49:26;;;;;;;10.88;10.57;;;18.60;99.90;;;;;;5104444;28;20252;-84
2022/05/29 10:52:31;;;;;;;10.60;10.30;;;19.40;99.90;;;;;;5118067;27;20259;-85
2022/05/29 10:55:29;;;;;;;10.68;10.38;;;19.80;99.90;;;;;;5112488;28;20248;-84
2022/05/29 10:58:32;;;;;;;10.57;10.27;;;19.00;99.90;;;;;;5110842;28;20202;-82
2022/05/29 11:04:54;;;;;;;11.30;10.95;;;17.50;99.90;;;;;;5103185;28;20229;-84
2022/05/29 11:07:39;;;;;;;10.98;10.68;;;17.40;99.90;;;;;;5094580;28;20225;-84
2022/05/29 11:10:24;;;;;;;11.00;10.70;;;17.40;99.90;;;;;;5102819;28;20218;-84
2022/05/29 11:13:20;;;;;;;10.70;10.40;;;16.90;99.90;;;;;;5100615;28;20240;-83
2022/05/29 11:16:09;;;;;;;10.70;10.40;;;17.00;99.90;;;;;;5102558;28;20239;-84
2022/05/29 11:19:49;;;;;;;10.70;10.40;;;17.40;99.90;;;;;;5101875;28;20230;-83
2022/05/29 11:22:33;;;;;;;10.80;10.50;;;17.30;99.90;;;;;;5039062;28;20235;-84
2022/05/29 11:25:52;;;;;;;10.65;10.35;;;17.30;99.90;;;;;;5107109;28;20225;-85
2022/05/29 11:29:14;;;;;;;10.70;10.40;;;16.80;99.90;;;;;;5109073;28;20233;-84
2022/05/29 11:32:06;;;;;;;10.50;10.20;;;16.40;99.90;;;;;;5102628;28;20263;-84
2022/05/29 11:34:44;;;;;;;10.30;10.00;;;16.50;99.90;;;;;;5103805;28;20229;-84
2022/05/29 11:38:04;;;;;;;10.57;10.27;;;16.50;99.90;;;;;;5105339;28;20240;-84
2022/05/29 11:40:46;;;;;;;10.60;10.30;;;16.70;99.90;;;;;;5101840;28;20232;-84
2022/05/29 11:43:30;;;;;;;10.68;10.38;;;16.80;99.90;;;;;;5102579;28;20225;-83
2022/05/29 11:51:51;;;;;;;10.52;10.23;;;16.80;99.90;;;;;;5102901;28;20277;-84
2022/05/29 11:54:30;;;;;;;10.30;10.00;;;16.80;99.90;;;;;;5100934;28;20248;-84
2022/05/29 11:57:08;;;;;;;10.45;10.15;;;16.70;99.90;;;;;;5101996;28;20229;-84
2022/05/29 11:59:55;;;;;;;10.60;10.30;;;16.80;99.90;;;;;;5108346;28;20229;-82
2022/05/29 12:02:42;;;;;;;10.60;10.30;;;16.80;99.90;;;;;;5104600;28;20233;-83
2022/05/29 12:05:28;;;;;;;10.88;10.57;;;16.80;99.90;;;;;;5102943;28;20224;-83
2022/05/29 12:08:09;;;;;;;10.50;10.20;;;16.80;99.90;;;;;;5102704;28;20257;-83
2022/05/29 12:10:58;;;;;;;10.70;10.40;;;16.70;99.90;;;;;;5102641;28;20271;-82
2022/05/29 12:13:53;;;;;;;10.38;10.07;;;16.60;99.90;;;;;;5102041;28;20248;-83
2022/05/29 12:16:30;;;;;;;10.35;10.05;;;16.50;99.90;;;;;;5101494;28;20221;-83
2022/05/29 12:19:08;;;;;;;10.60;10.30;;;15.40;99.90;;;;;;5102016;28;20225;-83
2022/05/29 12:21:56;;;;;;;10.50;10.20;;;14.30;99.90;;;;;;5101562;28;20229;-85
2022/05/29 12:24:51;;;;;;;10.47;10.17;;;13.80;99.90;;;;;;5101430;28;20725;-83
2022/05/29 12:27:35;;;;;;;10.87;10.57;;;13.30;99.90;;;;;;5101111;28;20221;-83
2022/05/29 12:30:24;;;;;;;10.90;10.60;;;13.00;99.90;;;;;;5100644;28;20240;-83
2022/05/29 12:33:22;;;;;;;10.80;10.50;;;12.80;99.90;;;;;;5101465;28;20244;-84
2022/05/29 12:36:30;;;;;;;10.83;10.53;;;12.50;99.90;;;;;;5102875;28;20233;-82
2022/05/29 12:42:36;;;;;;;10.40;10.10;;;12.00;99.90;;;;;;5159768;27;20510;-85
2022/05/29 12:45:58;;;;;;;10.63;10.33;;;11.60;99.90;;;;;;5097265;28;20256;-84
2022/05/29 12:49:20;;;;;;;10.70;10.40;;;11.30;99.90;;;;;;5099213;28;20226;-85
2022/05/29 12:52:24;;;;;;;10.43;10.13;;;10.90;99.90;;;;;;5099064;28;20228;-85
2022/05/29 13:03:43;;;;;;;10.90;10.60;;;9.70;99.90;;;;;;5021399;28;20253;-85
2022/05/29 13:07:13;;;;;;;11.20;10.80;;;9.30;99.90;;;;;;5096274;28;20202;-84
2022/05/29 13:13:48;;;;;;;11.03;10.63;;;9.00;99.90;;;;;;5090644;28;20337;-84
2022/05/29 13:16:28;;;;;;;11.13;10.73;;;9.00;99.90;;;;;;5094564;28;20260;-84
2022/05/29 13:19:26;;;;;;;11.20;10.80;;;8.90;99.90;;;;;;5094903;28;20229;-84
2022/05/29 13:25:39;;;;;;;11.20;10.80;;;8.70;99.90;;;;;;5094015;28;20230;-84
2022/05/29 13:31:44;;;;;;;;;;;;;;;;;;;;;
2022/05/29 13:41:31;;;;;;;11.03;10.63;;;8.40;99.90;;;;;;5059492;28;20252;-85
2022/05/29 13:54:43;;;;;;;11.03;10.63;;;8.50;99.90;;;;;;5116945;27;20315;-84
2022/05/29 14:04:39;;;;;;;10.60;10.30;;;8.70;99.90;;;;;;5145409;27;20213;-84
2022/05/29 14:08:05;;;;;;;10.60;10.30;;;8.80;99.90;;;;;;5144598;27;20216;-84
2022/05/29 14:14:39;;;;;;;10.90;10.50;;;9.10;99.90;;;;;;5145088;27;20228;-84
2022/05/29 14:35:36;;;;;;;10.40;10.10;;;10.10;99.90;;;;;;5135432;27;20212;-84
2022/05/29 14:43:05;;;;;;;10.40;10.10;;;10.40;99.90;;;;;;5088733;27;20313;-84
2022/05/29 14:45:43;;;;;;;10.23;9.93;;;10.50;99.90;;;;;;5047752;28;20230;-84
2022/05/29 14:52:10;;;;;;;10.30;10.00;;;10.70;99.90;;;;;;5083225;28;20225;-85
2022/05/29 14:55:04;;;;;;;10.40;10.10;;;10.90;99.90;;;;;;5081984;28;20389;-85
2022/05/29 14:58:13;;;;;;;10.40;10.10;;;11.00;99.90;;;;;;5087888;27;20303;-85
2022/05/29 15:00:55;;;;;;;10.20;9.90;;;11.00;99.90;;;;;;5125353;27;20256;-85
2022/05/29 15:04:29;;;;;;;10.20;9.90;;;11.10;99.90;;;;;;5127885;28;20233;-84
2022/05/29 15:10:48;;;;;;;10.37;10.07;;;11.30;99.90;;;;;;5115397;27;20221;-84
2022/05/29 15:29:57;;;;;;;10.00;9.70;;;11.60;99.90;;;;;;5126973;28;20217;-83
2022/05/29 15:33:11;;;;;;;10.13;9.83;;;11.80;99.90;;;;;;5131404;27;20225;-83
2022/05/29 15:39:20;;;;;;;10.07;9.77;;;12.10;99.90;;;;;;5123613;27;20213;-83
2022/05/29 15:42:32;;;;;;;10.07;9.77;;;12.20;99.90;;;;;;5128917;27;20255;-84
2022/05/29 15:53:14;;;;;;;10.20;9.90;;;12.30;99.90;;;;;;5123285;27;20225;-83
2022/05/29 15:56:10;;;;;;;10.60;10.30;;;12.30;99.90;;;;;;5127494;27;20284;-83
2022/05/29 15:59:25;;;;;;;10.40;10.10;;;12.10;99.90;;;;;;5126378;28;20231;-83
2022/05/29 16:02:34;;;;;;;9.93;9.63;;;12.10;99.90;;;;;;5124516;27;20224;-84
2022/05/29 16:05:36;;;;;;;10.00;9.70;;;12.20;99.90;;;;;;5124814;27;20243;-84
2022/05/29 16:08:48;;;;;;;10.30;10.00;;;12.10;99.90;;;;;;5125562;27;20236;-83
2022/05/29 16:12:09;;;;;;;10.07;9.77;;;12.10;99.90;;;;;;5124614;27;20267;-83
2022/05/29 16:14:50;;;;;;;9.93;9.63;;;12.20;99.90;;;;;;5092626;22;20239;-87
2022/05/29 16:17:53;;;;;;;10.00;9.70;;;12.20;99.90;;;;;;5060843;28;20219;-86
2022/05/29 16:20:41;;;;;;;9.70;9.40;;;12.20;99.90;;;;;;5061330;27;20231;-87
2022/05/29 16:23:17;;;;;;;9.90;9.60;;;12.20;99.90;;;;;;5061626;28;20235;-87
2022/05/29 16:26:06;;;;;;;9.60;9.30;;;12.40;99.90;;;;;;5060832;28;20242;-86
2022/05/29 16:28:53;;;;;;;9.90;9.60;;;12.60;99.90;;;;;;5064197;28;20238;-87
2022/05/29 16:31:30;;;;;;;10.00;9.70;;;12.90;99.90;;;;;;5061128;28;20302;-87
2022/05/29 16:34:07;;;;;;;10.17;9.87;;;13.20;99.90;;;;;;5062059;28;20285;-87
2022/05/29 16:48:07;;;;;;;9.80;9.50;;;13.40;99.90;;;;;;5061243;27;20329;-87
2022/05/29 16:48:55;;;;;;;9.87;9.57;;;14.10;99.90;;;;;;5060681;28;20211;-87
2022/05/29 16:51:30;;;;;;;9.77;9.47;;;14.20;99.90;;;;;;5061088;28;20227;-87
2022/05/29 16:54:05;;;;;;;10.10;9.80;;;14.20;99.90;;;;;;5064045;28;20258;-86
2022/05/29 16:56:52;;;;;;;10.30;10.00;;;14.30;99.90;;;;;;5061840;28;20254;-86
2022/05/29 16:59:47;;;;;;;10.18;9.88;;;14.40;99.90;;;;;;5061674;28;20329;-87
2022/05/29 17:02:35;;;;;;;10.37;10.07;;;14.50;99.90;;;;;;5061167;28;20230;-86
2022/05/29 17:05:13;;;;;;;10.32;10.02;;;14.80;99.90;;;;;;5059979;28;20241;-87